Millenium Air

Millenium Air Since 1998



 METAR AND TAF INFORMATION
METAR FOR EDDC
ADDS - METARS form results

(0027 UTC 26 February 2021)
Data provider http://aviationweather.gov/metar/data/
 
METAR text: EDDC 260020Z 17004KT 150V210 CAVOK 06/03 Q1027
Conditions at: EDDC (DRESDEN/KLOTZSCH, DE) observed 0020 UTC 26 February 2021
Temperature: 6.0°C (43°F)
Dewpoint: 3.0°C (37°F) [RH = 81%]
Pressure (altimeter): 30.32 inches Hg (1027.0 mb)
Winds: from the S (170 degrees) at 5 MPH (4 knots; 2.1 m/s)
Visibility: 6 or more miles (10+ km)
Ceiling: ceiling and visibility are OK
Clouds: unknown
Weather: no significant weather observed at this time

METAR text: EDDC 252350Z VRB02KT CAVOK 07/03 Q1027
Conditions at: EDDC (DRESDEN/KLOTZSCH, DE) observed 2350 UTC 25 February 2021
Temperature: 7.0°C (45°F)
Dewpoint: 3.0°C (37°F) [RH = 76%]
Pressure (altimeter): 30.32 inches Hg (1027.0 mb)
Winds: variable direction winds at 2 MPH (2 knots; 1.0 m/s)
Visibility: 6 or more miles (10+ km)
Ceiling: ceiling and visibility are OK
Clouds: unknown
Weather: no significant weather observed at this time

Forecast for: EDDC (DRESDEN/KLOTZSCH, DE)
Text: TAF EDDC 252300Z 2600/2624 20005KT 9999 BKN045
Forecast period: 0000 to 0600 UTC 26 February 2021
Forecast type: FROM: standard forecast or significant change
Winds: from the SSW (200 degrees) at 6 MPH (5 knots; 2.6 m/s)
Visibility: 6 or more miles (10+ km)
Ceiling: 4500 feet AGL
Clouds: broken clouds at 4500 feet AGL
Weather: no significant weather forecast for this period
Text: BECMG 2606/2608 30007KT
Forecast period: 0600 UTC 26 February 2021 to 0000 UTC 27 February 2021
Forecast type: BECOMING: Conditions expected to become as follows by 0800 UTC 26 February 2021
Winds: from the WNW (300 degrees) at 8 MPH (7 knots; 3.6 m/s)
Visibility: 6 or more miles (10+ km)
Ceiling: 4500 feet AGL
Clouds: broken clouds at 4500 feet AGL
Weather: no significant weather forecast for this period
Text: PROB30
Forecast period: 0900 to 1600 UTC 26 February 2021
Forecast type: TEMPORARY: The following changes expected for less than half the time period
Visibility: 2.49 miles (4.01 km)
Ceiling: 1200 feet AGL
Clouds: broken clouds at 1200 feet AGL
Weather: -RA  (light rain)

 AIRPORT MAP

 RUNWAY INFORMATION
Runway 04 Runway length 8228 ft Runway width 167 ft
Runway elevation 755 ft Runway displaced threshold 0 ft Runway heading 41
Runway 22 Runway length 8228 ft Runway width 167 ft
Runway elevation 703 ft Runway displaced threshold 0 ft Runway heading 221

 AIRPORT FREQUENCIES
Type AFIS Name MUNCHEN IN Frequency 125.8 MHZ
Type APP Name MUNCHEN RA Frequency 125.625 MHZ
Type ATIS Name ATIS Frequency 118.875 MHZ
Type GND Name GND Frequency 121.9 MHZ
Type RMP Name APRON Frequency 121.75 MHZ
Type TWR Name TWR Frequency 119.7 MHZ

 AIRPORT NEAR NAVIGATION AIDS
Type DME Name Dresden Frequency 115400 KHZ
Type VOR-DME Name Dresden Frequency 114350 KHZ